createdAt,value
2019-05-06T00:01:58.484Z,4.37
2019-05-06T00:04:28.394Z,3.83
2019-05-06T00:06:58.152Z,4.13
2019-05-06T00:09:28.172Z,4.37
2019-05-06T00:11:58.127Z,4.53
2019-05-06T00:14:28.193Z,5.20
2019-05-06T00:16:58.720Z,4.33
2019-05-06T00:19:28.619Z,4.67
2019-05-06T00:21:58.494Z,4.20
2019-05-06T00:24:34.777Z,4.73
2019-05-06T00:27:14.159Z,4.47
2019-05-06T00:29:46.802Z,4.63
2019-05-06T00:32:16.360Z,4.03
2019-05-06T00:34:46.012Z,4.60
2019-05-06T00:37:15.822Z,5.00
2019-05-06T00:40:04.680Z,4.60
2019-05-06T00:42:36.880Z,4.83
2019-05-06T00:45:07.761Z,4.97
2019-05-06T00:47:37.413Z,4.30
2019-05-06T00:50:07.464Z,5.57
2019-05-06T00:52:37.651Z,5.07
2019-05-06T00:55:07.520Z,5.17
2019-05-06T00:57:46.291Z,4.97
2019-05-06T01:00:24.232Z,4.78
2019-05-06T01:02:54.301Z,4.80
2019-05-06T01:05:24.547Z,5.10
2019-05-06T01:07:54.983Z,4.77
2019-05-06T01:10:25.010Z,4.87
2019-05-06T01:13:00.430Z,4.83
2019-05-06T01:15:30.839Z,5.12
2019-05-06T01:18:00.643Z,5.60
2019-05-06T01:20:30.534Z,5.77
2019-05-06T01:23:00.262Z,4.97
2019-05-06T01:25:30.949Z,5.43
2019-05-06T01:28:01.069Z,5.17
2019-05-06T01:30:30.935Z,5.17
2019-05-06T01:33:00.709Z,5.63
2019-05-06T01:35:30.758Z,6.37
2019-05-06T01:38:17.972Z,6.57
2019-05-06T01:41:05.508Z,6.63
2019-05-06T01:43:35.580Z,6.30
2019-05-06T01:46:05.317Z,7.20
2019-05-06T01:48:50.124Z,6.93
2019-05-06T01:51:20.969Z,6.80
2019-05-06T01:53:51.392Z,6.17
2019-05-06T01:56:21.155Z,6.77
2019-05-06T01:58:50.927Z,6.53
2019-05-06T02:01:20.573Z,6.92
2019-05-06T02:03:50.339Z,6.90
2019-05-06T02:06:20.075Z,6.90
2019-05-06T02:08:49.823Z,7.30
2019-05-06T02:11:19.445Z,6.37
2019-05-06T02:13:49.117Z,6.87
2019-05-06T02:16:18.749Z,6.67
2019-05-06T02:18:48.457Z,7.15
2019-05-06T02:21:26.429Z,6.00
2019-05-06T02:24:00.684Z,6.47
2019-05-06T02:26:30.370Z,6.53
2019-05-06T02:29:04.146Z,7.63
2019-05-06T02:31:56.632Z,7.50
2019-05-06T02:34:54.632Z,7.00
2019-05-06T02:37:28.238Z,6.60
2019-05-06T02:39:57.975Z,6.87
2019-05-06T02:42:27.727Z,7.57
2019-05-06T02:44:57.389Z,6.77
2019-05-06T02:47:43.104Z,6.10
2019-05-06T02:50:15.639Z,7.53
2019-05-06T02:52:45.376Z,6.80
2019-05-06T02:55:15.246Z,6.83
2019-05-06T02:57:45.148Z,7.73
2019-05-06T03:00:17.570Z,7.05
2019-05-06T03:02:48.353Z,7.70
2019-05-06T03:05:19.494Z,7.20
2019-05-06T03:07:49.117Z,7.10
2019-05-06T03:10:18.820Z,7.70
2019-05-06T03:12:48.534Z,7.37
2019-05-06T03:15:18.278Z,7.57
2019-05-06T03:17:47.987Z,8.00
2019-05-06T03:20:35.952Z,7.97
2019-05-06T03:23:08.130Z,7.30
2019-05-06T03:25:43.701Z,7.60
2019-05-06T03:28:13.283Z,7.50
2019-05-06T03:30:45.937Z,7.67
2019-05-06T03:33:38.346Z,7.92
2019-05-06T03:36:00.569Z,7.43
2019-05-06T03:38:17.594Z,8.05
2019-05-06T03:40:47.265Z,7.80
2019-05-06T03:43:16.997Z,8.17
2019-05-06T03:46:05.873Z,7.60
2019-05-06T03:48:38.461Z,7.03
2019-05-06T03:51:08.404Z,8.97
2019-05-06T03:53:38.138Z,7.87
2019-05-06T03:56:07.879Z,8.03
2019-05-06T03:58:38.107Z,7.70
2019-05-06T04:01:08.473Z,8.17
2019-05-06T04:03:47.133Z,9.47
2019-05-06T04:06:13.565Z,7.87
2019-05-06T04:08:43.677Z,7.97
2019-05-06T04:11:16.446Z,9.17
2019-05-06T04:13:47.248Z,7.73
2019-05-06T04:16:30.211Z,9.13
2019-05-06T04:19:07.557Z,9.07
2019-05-06T04:21:47.684Z,8.27
2019-05-06T04:24:33.923Z,8.67
2019-05-06T04:27:22.896Z,8.33
2019-05-06T04:29:54.505Z,8.50
2019-05-06T04:32:24.350Z,8.57
2019-05-06T04:34:54.029Z,8.93
2019-05-06T04:37:24.318Z,8.80
2019-05-06T04:39:54.227Z,8.90
2019-05-06T04:42:26.972Z,10.08
2019-05-06T04:44:56.455Z,9.60
2019-05-06T04:47:27.090Z,9.15
2019-05-06T04:49:56.824Z,9.17
2019-05-06T04:52:26.544Z,9.63
2019-05-06T04:54:56.299Z,8.93
2019-05-06T04:57:26.163Z,9.20
2019-05-06T04:59:55.999Z,9.87
2019-05-06T05:02:25.979Z,9.07
2019-05-06T05:04:56.215Z,9.60
2019-05-06T05:07:25.973Z,9.73
2019-05-06T05:10:03.886Z,9.63
2019-05-06T05:12:42.654Z,10.20
2019-05-06T05:15:32.541Z,9.73
2019-05-06T05:18:13.081Z,9.30
2019-05-06T05:20:46.571Z,10.13
2019-05-06T05:23:17.418Z,9.47
2019-05-06T05:25:47.587Z,9.90
2019-05-06T05:28:17.319Z,10.57
2019-05-06T05:30:47.119Z,10.37
2019-05-06T05:33:16.903Z,9.83
2019-05-06T05:35:46.706Z,9.23
2019-05-06T05:38:16.827Z,9.10
2019-05-06T05:40:47.078Z,9.43
2019-05-06T05:43:26.605Z,9.70
2019-05-06T05:45:56.495Z,10.43
2019-05-06T05:49:02.762Z,9.10
2019-05-06T05:51:32.238Z,9.53
2019-05-06T05:54:02.386Z,9.57
2019-05-06T05:56:32.928Z,10.40
2019-05-06T05:59:03.436Z,9.48
2019-05-06T06:01:33.311Z,8.73
2019-05-06T06:04:03.362Z,9.47
2019-05-06T06:06:33.428Z,9.73
2019-05-06T06:09:03.324Z,9.10
2019-05-06T06:11:42.077Z,8.97
2019-05-06T06:14:33.027Z,8.78
2019-05-06T06:17:24.043Z,9.53
2019-05-06T06:19:59.118Z,8.33
2019-05-06T06:22:32.920Z,9.45
2019-05-06T06:25:04.246Z,10.00
2019-05-06T06:27:48.575Z,9.93
2019-05-06T06:30:22.043Z,8.83
2019-05-06T06:32:52.818Z,9.13
2019-05-06T06:35:32.408Z,9.80
2019-05-06T06:38:14.504Z,9.20
2019-05-06T06:40:44.290Z,9.23
2019-05-06T06:43:18.600Z,9.47
2019-05-06T06:45:48.378Z,9.47
2019-05-06T06:48:20.071Z,9.83
2019-05-06T06:50:49.750Z,8.40
2019-05-06T06:53:19.402Z,8.90
2019-05-06T06:55:49.042Z,8.40
2019-05-06T06:58:32.190Z,9.37
2019-05-06T07:01:28.682Z,9.98
2019-05-06T07:04:10.473Z,8.68
2019-05-06T07:06:45.186Z,8.90
2019-05-06T07:09:14.882Z,9.07
2019-05-06T07:11:44.649Z,8.20
2019-05-06T07:14:14.321Z,8.85
2019-05-06T07:16:44.093Z,8.30
2019-05-06T07:19:15.861Z,7.90
2019-05-06T07:21:54.831Z,8.93
2019-05-06T07:24:26.347Z,8.20
2019-05-06T07:27:03.046Z,8.70
2019-05-06T07:29:32.987Z,8.53
2019-05-06T07:32:02.842Z,8.37
2019-05-06T07:34:33.248Z,8.55
2019-05-06T07:37:03.596Z,10.10
2019-05-06T07:39:33.536Z,8.77
2019-05-06T07:42:06.576Z,7.67
2019-05-06T07:45:12.430Z,6.63
2019-05-06T07:47:54.121Z,7.47
2019-05-06T07:50:24.217Z,7.40
2019-05-06T07:53:09.946Z,6.93
2019-05-06T07:55:42.239Z,5.62
2019-05-06T07:58:13.561Z,5.87
2019-05-06T08:00:43.107Z,6.17
2019-05-06T08:03:14.075Z,6.13
2019-05-06T08:05:54.699Z,6.40
2019-05-06T08:08:15.345Z,5.70
2019-05-06T08:10:45.159Z,6.03
2019-05-06T08:13:14.832Z,5.83
2019-05-06T08:15:45.583Z,6.60
2019-05-06T08:18:16.051Z,5.90
2019-05-06T08:20:45.865Z,6.87
2019-05-06T08:23:34.655Z,6.40
2019-05-06T08:26:12.076Z,6.40
2019-05-06T08:28:40.493Z,5.65
2019-05-06T08:31:07.810Z,5.45
2019-05-06T08:33:37.488Z,5.55
2019-05-06T08:36:14.023Z,5.28
2019-05-06T08:38:57.562Z,6.85
2019-05-06T08:41:27.702Z,5.97
2019-05-06T08:43:57.631Z,4.50
2019-05-06T08:46:27.448Z,6.90
2019-05-06T08:48:57.188Z,5.42
2019-05-06T08:51:34.237Z,4.37
2019-05-06T08:54:08.315Z,5.53
2019-05-06T08:56:38.159Z,5.15
2019-05-06T08:59:08.870Z,5.97
2019-05-06T09:01:58.654Z,6.03
2019-05-06T09:04:29.116Z,5.78
2019-05-06T09:06:58.885Z,5.27
2019-05-06T09:09:28.601Z,5.63
2019-05-06T09:11:59.084Z,5.65
2019-05-06T09:14:32.425Z,5.67
2019-05-06T09:17:02.881Z,5.60
2019-05-06T09:19:33.309Z,5.57
2019-05-06T09:22:03.007Z,5.28
2019-05-06T09:24:33.781Z,4.70
2019-05-06T09:27:22.630Z,4.22
2019-05-06T09:29:59.255Z,4.27
2019-05-06T09:32:36.285Z,5.10
2019-05-06T09:35:07.138Z,4.60
2019-05-06T09:37:37.119Z,4.53
2019-05-06T09:40:08.018Z,4.35
2019-05-06T09:42:37.702Z,4.12
2019-05-06T09:45:08.170Z,4.62
2019-05-06T09:48:03.670Z,5.40
2019-05-06T09:50:39.822Z,4.20
2019-05-06T09:53:14.158Z,4.42
2019-05-06T09:55:53.054Z,4.65
2019-05-06T09:58:23.136Z,4.00
2019-05-06T10:00:54.543Z,3.97
2019-05-06T10:03:24.250Z,3.77
2019-05-06T10:05:53.974Z,4.30
2019-05-06T10:08:23.806Z,4.70
2019-05-06T10:10:59.494Z,4.13
2019-05-06T10:13:25.045Z,3.70
2019-05-06T10:15:57.533Z,3.90
2019-05-06T10:18:26.351Z,3.37
2019-05-06T10:20:56.160Z,3.63
2019-05-06T10:23:25.857Z,4.08
2019-05-06T10:25:55.589Z,4.17
2019-05-06T10:28:52.369Z,4.10
2019-05-06T10:31:22.006Z,4.50
2019-05-06T10:34:09.449Z,4.50
2019-05-06T10:37:11.673Z,4.43
2019-05-06T10:39:34.257Z,5.47
2019-05-06T10:42:13.126Z,5.17
2019-05-06T10:44:53.989Z,4.87
2019-05-06T10:47:23.649Z,4.70
2019-05-06T10:49:53.603Z,4.70
2019-05-06T10:52:27.555Z,4.90
2019-05-06T10:54:57.300Z,4.77
2019-05-06T10:57:32.845Z,4.57
2019-05-06T11:00:02.484Z,5.60
2019-05-06T11:02:57.900Z,5.37
2019-05-06T11:05:27.797Z,5.10
2019-05-06T11:07:57.446Z,4.90
2019-05-06T11:10:33.970Z,4.87
2019-05-06T11:12:58.676Z,4.70
2019-05-06T11:15:28.472Z,5.40
2019-05-06T11:17:58.259Z,4.50
2019-05-06T11:20:28.113Z,4.63
2019-05-06T11:22:57.849Z,4.50
2019-05-06T11:25:27.623Z,4.05
2019-05-06T11:27:57.343Z,4.77
2019-05-06T11:30:45.634Z,5.00
2019-05-06T11:33:37.440Z,5.53
2019-05-06T11:36:22.982Z,4.80
2019-05-06T11:38:53.094Z,5.75
2019-05-06T11:41:23.450Z,5.90
2019-05-06T11:43:54.114Z,5.53
2019-05-06T11:46:23.784Z,5.73
2019-05-06T11:48:53.826Z,5.47
2019-05-06T11:51:25.381Z,6.40
2019-05-06T11:53:55.197Z,7.37
2019-05-06T11:56:25.009Z,8.70
2019-05-06T11:58:55.572Z,8.30
2019-05-06T12:01:28.490Z,7.97
2019-05-06T12:03:58.422Z,7.87
2019-05-06T12:06:28.130Z,7.37
2019-05-06T12:08:57.928Z,8.07
2019-05-06T12:11:27.660Z,7.33
2019-05-06T12:13:57.379Z,8.37
2019-05-06T12:16:27.040Z,8.43
2019-05-06T12:18:59.659Z,8.40
2019-05-06T12:21:28.148Z,9.27
2019-05-06T12:23:58.861Z,9.27
2019-05-06T12:26:28.800Z,9.57
2019-05-06T12:28:58.560Z,9.73
2019-05-06T12:31:28.306Z,10.23
2019-05-06T12:33:58.197Z,10.57
2019-05-06T12:36:27.853Z,10.40
2019-05-06T12:39:18.714Z,12.23
2019-05-06T12:42:06.193Z,10.70
2019-05-06T12:44:37.381Z,11.23
2019-05-06T12:47:24.514Z,10.97
2019-05-06T12:49:54.228Z,12.67
2019-05-06T12:52:24.298Z,11.90
2019-05-06T12:55:12.982Z,12.93
2019-05-06T12:57:25.625Z,12.43
2019-05-06T13:00:06.277Z,11.10
2019-05-06T13:02:36.106Z,11.10
2019-05-06T13:05:06.248Z,10.90
2019-05-06T13:07:44.630Z,10.40
2019-05-06T13:10:18.641Z,10.35
2019-05-06T13:12:54.218Z,9.97
2019-05-06T13:15:24.630Z,9.93
2019-05-06T13:17:54.251Z,9.10
2019-05-06T13:20:24.157Z,8.90
2019-05-06T13:23:08.523Z,9.07
2019-05-06T13:25:36.853Z,8.30
2019-05-06T13:28:09.360Z,9.13
2019-05-06T13:30:39.185Z,10.37
2019-05-06T13:33:20.135Z,9.90
2019-05-06T13:35:52.514Z,9.23
2019-05-06T13:38:22.396Z,9.20
2019-05-06T13:40:57.033Z,9.13
2019-05-06T13:43:43.457Z,8.63
2019-05-06T13:46:43.470Z,9.70
2019-05-06T13:49:42.854Z,8.63
2019-05-06T13:52:14.197Z,7.33
2019-05-06T13:54:43.855Z,8.00
2019-05-06T13:57:13.489Z,8.63
2019-05-06T13:59:44.278Z,7.80
2019-05-06T14:02:21.043Z,5.93
2019-05-06T14:04:52.716Z,5.57
2019-05-06T14:07:24.314Z,5.60
2019-05-06T14:09:54.259Z,6.07
2019-05-06T14:12:23.986Z,5.17
2019-05-06T14:14:55.674Z,4.67
2019-05-06T14:17:25.614Z,4.97
2019-05-06T14:19:55.582Z,4.43
2019-05-06T14:22:28.109Z,4.80
2019-05-06T14:25:12.705Z,5.33
2019-05-06T14:27:46.805Z,5.80
2019-05-06T14:30:38.895Z,5.60
2019-05-06T14:33:08.924Z,5.87
2019-05-06T14:35:38.779Z,5.47
2019-05-06T14:38:08.686Z,5.60
2019-05-06T14:40:57.478Z,5.15
2019-05-06T14:43:27.165Z,5.90
2019-05-06T14:45:56.994Z,5.40
2019-05-06T14:48:26.682Z,5.23
2019-05-06T14:50:57.427Z,5.73
2019-05-06T14:53:27.223Z,6.23
2019-05-06T14:55:58.884Z,6.60
2019-05-06T14:58:28.938Z,6.43
2019-05-06T15:00:58.789Z,6.40
2019-05-06T15:03:28.555Z,6.37
2019-05-06T15:05:58.194Z,6.43
2019-05-06T15:08:27.878Z,6.47
2019-05-06T15:10:57.671Z,7.40
2019-05-06T15:13:27.723Z,7.13
2019-05-06T15:15:57.457Z,7.90
2019-05-06T15:18:28.219Z,7.03
2019-05-06T15:21:23.584Z,8.03
2019-05-06T15:23:29.510Z,8.43
2019-05-06T15:25:59.404Z,7.57
2019-05-06T15:28:29.725Z,7.75
2019-05-06T15:31:07.318Z,8.53
2019-05-06T15:33:40.130Z,7.60
2019-05-06T15:36:16.759Z,8.53
2019-05-06T15:38:47.313Z,8.38
2019-05-06T15:41:17.068Z,8.87
2019-05-06T15:43:46.857Z,8.27
2019-05-06T15:46:17.882Z,8.60
2019-05-06T15:48:49.278Z,8.87
2019-05-06T15:51:22.317Z,8.68
2019-05-06T15:53:52.952Z,9.27
2019-05-06T15:56:23.470Z,8.80
2019-05-06T15:58:53.198Z,8.43
2019-05-06T16:01:23.531Z,8.03
2019-05-06T16:03:53.478Z,8.90
2019-05-06T16:06:23.300Z,8.87
2019-05-06T16:08:53.330Z,8.38
2019-05-06T16:11:23.006Z,8.10
2019-05-06T16:13:53.481Z,8.00
2019-05-06T16:16:23.435Z,7.90
2019-05-06T16:18:53.290Z,8.17
2019-05-06T16:21:23.113Z,8.73
2019-05-06T16:24:05.621Z,7.90
2019-05-06T16:26:35.642Z,8.97
2019-05-06T16:29:05.472Z,8.87
2019-05-06T16:31:37.656Z,9.27
2019-05-06T16:34:07.451Z,8.70
2019-05-06T16:36:37.275Z,9.50
2019-05-06T16:39:07.717Z,8.73
2019-05-06T16:41:37.428Z,10.33
2019-05-06T16:44:07.704Z,10.10
2019-05-06T16:46:37.384Z,8.33
2019-05-06T16:49:07.572Z,10.68
2019-05-06T16:51:37.414Z,9.77
2019-05-06T16:54:07.203Z,9.57
2019-05-06T16:56:44.658Z,10.27
2019-05-06T16:59:13.542Z,9.75
2019-05-06T17:01:45.101Z,8.50
2019-05-06T17:04:36.714Z,7.70
2019-05-06T17:07:06.366Z,7.87
2019-05-06T17:09:42.821Z,8.50
2019-05-06T17:12:12.939Z,8.03
2019-05-06T17:14:42.905Z,6.57
2019-05-06T17:17:12.915Z,5.83
2019-05-06T17:19:42.785Z,6.13
2019-05-06T17:22:12.555Z,5.85
2019-05-06T17:24:42.325Z,6.50
2019-05-06T17:27:12.197Z,5.53
2019-05-06T17:29:51.414Z,6.03
2019-05-06T17:32:46.270Z,6.53
2019-05-06T17:35:16.403Z,6.47
2019-05-06T17:38:11.043Z,6.87
2019-05-06T17:40:42.903Z,6.83
2019-05-06T17:43:13.071Z,6.37
2019-05-06T17:45:58.461Z,6.57
2019-05-06T17:48:42.238Z,6.17
2019-05-06T17:51:16.575Z,5.37
2019-05-06T17:53:49.252Z,4.83
2019-05-06T17:56:23.210Z,5.80
2019-05-06T17:58:53.400Z,5.03
2019-05-06T18:01:32.668Z,5.33
2019-05-06T18:04:03.119Z,5.40
2019-05-06T18:06:33.336Z,4.67
2019-05-06T18:09:03.228Z,4.30
2019-05-06T18:11:34.512Z,5.27
2019-05-06T18:14:04.492Z,5.07
2019-05-06T18:16:34.237Z,5.07
2019-05-06T18:19:04.030Z,5.03
2019-05-06T18:21:33.862Z,5.50
2019-05-06T18:24:04.126Z,5.13
2019-05-06T18:26:33.970Z,5.53
2019-05-06T18:29:03.926Z,5.23
2019-05-06T18:31:33.857Z,4.80
2019-05-06T18:34:06.345Z,5.23
2019-05-06T18:36:35.720Z,4.87
2019-05-06T18:39:09.706Z,4.97
2019-05-06T18:41:41.905Z,5.53
2019-05-06T18:44:12.034Z,5.47
2019-05-06T18:46:42.229Z,5.77
2019-05-06T18:49:13.076Z,6.03
2019-05-06T18:51:43.232Z,5.97
2019-05-06T18:54:13.205Z,5.85
2019-05-06T18:56:43.191Z,5.70
2019-05-06T18:59:13.141Z,6.77
2019-05-06T19:01:43.482Z,6.73
2019-05-06T19:04:28.269Z,6.17
2019-05-06T19:07:09.456Z,6.60
2019-05-06T19:09:47.722Z,6.87
2019-05-06T19:12:30.058Z,6.70
2019-05-06T19:14:49.278Z,6.63
2019-05-06T19:17:19.059Z,7.03
2019-05-06T19:19:51.886Z,6.87
2019-05-06T19:22:22.864Z,6.47
2019-05-06T19:24:53.919Z,7.33
2019-05-06T19:27:24.948Z,6.42
2019-05-06T19:29:54.858Z,6.37
2019-05-06T19:32:24.735Z,6.75
2019-05-06T19:34:54.748Z,6.60
2019-05-06T19:37:26.029Z,7.00
2019-05-06T19:39:55.740Z,6.70
2019-05-06T19:42:25.643Z,6.67
2019-05-06T19:44:55.631Z,6.63
2019-05-06T19:47:25.306Z,6.47
2019-05-06T19:49:55.858Z,7.15
2019-05-06T19:52:25.604Z,6.97
2019-05-06T19:54:55.508Z,7.50
2019-05-06T19:57:25.762Z,7.13
2019-05-06T19:59:55.541Z,7.03
2019-05-06T20:02:25.907Z,7.13
2019-05-06T20:05:02.962Z,7.17
2019-05-06T20:07:47.126Z,7.97
2019-05-06T20:10:36.874Z,8.10
2019-05-06T20:13:06.575Z,7.60
2019-05-06T20:15:42.250Z,8.40
2019-05-06T20:18:11.894Z,8.70
2019-05-06T20:20:42.513Z,8.90
2019-05-06T20:23:12.754Z,9.50
2019-05-06T20:25:44.722Z,9.47
2019-05-06T20:28:13.857Z,10.60
2019-05-06T20:30:43.654Z,9.93
2019-05-06T20:33:13.299Z,9.17
2019-05-06T20:35:43.456Z,9.60
2019-05-06T20:38:13.267Z,9.90
2019-05-06T20:40:43.385Z,10.30
2019-05-06T20:43:19.617Z,11.83
2019-05-06T20:45:45.693Z,11.03
2019-05-06T20:48:15.618Z,10.43
2019-05-06T20:50:45.324Z,11.97
2019-05-06T22:09:53.743Z,14.37
2019-05-06T22:12:24.916Z,14.43
2019-05-06T22:14:55.037Z,15.53
2019-05-06T22:17:26.635Z,15.63
2019-05-06T22:19:57.376Z,15.97
2019-05-06T22:22:28.809Z,16.93
2019-05-06T22:24:59.344Z,16.93
2019-05-06T22:27:29.837Z,16.20
2019-05-06T22:30:03.056Z,16.53
2019-05-06T22:32:45.649Z,15.30
2019-05-06T22:35:16.743Z,15.83
2019-05-06T22:37:46.827Z,18.63
2019-05-06T22:40:16.963Z,18.13
2019-05-06T22:42:47.631Z,18.50
2019-05-06T22:45:18.212Z,18.50
2019-05-06T22:47:47.974Z,18.40
2019-05-06T22:50:17.840Z,17.63
2019-05-06T22:52:49.402Z,18.55
2019-05-06T22:55:19.143Z,19.20
2019-05-06T22:57:48.886Z,18.93
2019-05-06T23:00:23.480Z,18.00
2019-05-06T23:02:58.007Z,18.23
2019-05-06T23:05:27.779Z,18.43
2019-05-06T23:07:57.492Z,17.80
2019-05-06T23:10:27.293Z,18.12
2019-05-06T23:12:57.122Z,18.10
2019-05-06T23:15:27.012Z,17.07
2019-05-06T23:17:56.825Z,18.30
2019-05-06T23:20:26.549Z,18.67
2019-05-06T23:22:56.375Z,16.77
2019-05-06T23:25:26.160Z,16.83
2019-05-06T23:27:56.833Z,17.50
2019-05-06T23:30:26.460Z,16.87
2019-05-06T23:32:56.646Z,17.80
2019-05-06T23:35:27.455Z,17.77
2019-05-06T23:38:33.978Z,15.97
2019-05-06T23:41:42.186Z,17.43
2019-05-06T23:44:47.635Z,18.20
2019-05-06T23:47:53.708Z,16.63
2019-05-06T23:50:59.869Z,16.80
2019-05-06T23:54:05.616Z,16.73
2019-05-06T23:56:44.180Z,16.67
2019-05-06T23:59:15.532Z,16.27
